Time;durP1;ratioP1;P1;durP2;ratioP2;P2;SDS_P1;SDS_P2;PMS_P1;PMS_P2;Temp;Humidity;BMP_temperature;BMP_pressure;BME280_temperature;BME280_humidity;BME280_pressure;Samples;Min_cycle;Max_cycle;Signal;HPM_P1;HPM_P2
2023/06/21 00:00:30;;;;;;;13.20;9.77;;;;;;;21.47;100.00;101010.03;5068410;28;20036;-77
2023/06/21 00:02:56;;;;;;;10.52;8.85;;;;;;;21.53;100.00;101008.25;5065994;28;20025;-77
2023/06/21 00:05:21;;;;;;;11.25;8.55;;;;;;;21.50;100.00;101014.81;5071583;28;20031;-77
2023/06/21 00:07:48;;;;;;;12.93;9.80;;;;;;;21.36;100.00;101012.38;5067343;28;20388;-76
2023/06/21 00:10:13;;;;;;;12.73;9.55;;;;;;;21.11;100.00;101016.69;5071921;28;20050;-76
2023/06/21 00:12:39;;;;;;;14.25;9.02;;;;;;;21.19;100.00;101018.09;5067245;28;20366;-76
2023/06/21 00:15:05;;;;;;;11.40;9.38;;;;;;;21.42;100.00;101022.78;5069737;28;20125;-76
2023/06/21 00:17:30;;;;;;;13.13;8.90;;;;;;;21.56;100.00;101023.63;5069871;28;20578;-77
2023/06/21 00:19:56;;;;;;;11.35;9.13;;;;;;;21.31;100.00;101025.09;5072553;28;20032;-76
2023/06/21 00:22:22;;;;;;;16.60;10.50;;;;;;;21.20;100.00;101025.38;5065812;28;20036;-76
2023/06/21 00:24:51;;;;;;;12.43;9.27;;;;;;;21.28;100.00;101020.31;5069251;28;20055;-76
2023/06/21 00:27:18;;;;;;;16.63;10.88;;;;;;;21.40;100.00;101024.44;5070679;28;20477;-76
2023/06/21 00:29:43;;;;;;;12.60;8.43;;;;;;;21.24;100.00;101023.25;5072013;28;20032;-76
2023/06/21 00:32:08;;;;;;;14.10;9.63;;;;;;;21.25;100.00;101021.19;5065140;28;20132;-77
2023/06/21 00:34:35;;;;;;;14.27;9.60;;;;;;;21.27;100.00;101025.22;5072846;28;20151;-76
2023/06/21 00:37:02;;;;;;;16.35;10.25;;;;;;;20.90;100.00;101033.09;5062773;28;20366;-76
2023/06/21 00:39:28;;;;;;;14.85;10.73;;;;;;;21.03;100.00;101030.31;5074516;28;20097;-76
2023/06/21 00:41:54;;;;;;;14.25;10.55;;;;;;;20.87;100.00;101025.47;5065609;28;20536;-76
2023/06/21 00:44:19;;;;;;;12.63;10.13;;;;;;;21.14;100.00;101026.38;5074991;28;20945;-77
2023/06/21 00:46:44;;;;;;;14.88;9.65;;;;;;;21.09;100.00;101036.28;5071961;28;20507;-76
2023/06/21 00:49:10;;;;;;;13.68;9.88;;;;;;;21.17;100.00;101029.13;5066731;28;20396;-77
2023/06/21 00:51:38;;;;;;;12.80;9.25;;;;;;;21.17;100.00;101032.00;5082708;28;20391;-76
2023/06/21 00:54:03;;;;;;;13.27;9.85;;;;;;;20.98;100.00;101030.06;5091244;28;20039;-76
2023/06/21 00:56:29;;;;;;;15.75;10.43;;;;;;;21.09;100.00;101027.72;5087311;28;20474;-76
2023/06/21 00:58:56;;;;;;;16.25;11.27;;;;;;;21.11;100.00;101039.47;5091076;28;20451;-76
2023/06/21 01:01:21;;;;;;;15.93;10.88;;;;;;;21.16;100.00;101036.06;5089330;28;20062;-76
2023/06/21 01:03:47;;;;;;;16.08;11.23;;;;;;;21.19;100.00;101046.56;5094941;28;20055;-76
2023/06/21 01:06:26;;;;;;;19.00;11.55;;;;;;;21.00;100.00;101044.66;5091463;28;20119;-76
2023/06/21 01:09:29;;;;;;;19.20;12.80;;;;;;;20.68;100.00;101043.41;5096668;28;20035;-75
2023/06/21 01:12:18;;;;;;;15.05;10.50;;;;;;;20.80;100.00;101053.28;5085282;28;20422;-76
2023/06/21 01:15:23;;;;;;;17.52;12.82;;;;;;;20.74;100.00;101060.75;5097399;28;20110;-76
2023/06/21 01:17:52;;;;;;;20.85;12.77;;;;;;;20.56;100.00;101072.53;5100772;28;20050;-75
2023/06/21 01:20:24;;;;;;;16.48;11.75;;;;;;;20.80;100.00;101076.81;5095609;28;20164;-76
2023/06/21 01:23:08;;;;;;;22.73;15.00;;;;;;;20.42;100.00;101071.59;5092350;28;20023;-76
2023/06/21 01:26:02;;;;;;;19.48;12.98;;;;;;;20.70;100.00;101075.88;5078272;28;20024;-75
2023/06/21 01:29:00;;;;;;;17.92;12.63;;;;;;;20.76;100.00;101066.78;5104072;28;20472;-76
2023/06/21 01:31:27;;;;;;;27.38;15.40;;;;;;;20.76;100.00;101076.13;5082203;28;20038;-76
2023/06/21 01:33:54;;;;;;;24.52;16.00;;;;;;;20.54;100.00;101075.03;5093837;28;20032;-76
2023/06/21 01:36:21;;;;;;;25.02;15.20;;;;;;;20.81;100.00;101078.44;5093304;28;20107;-76
2023/06/21 01:38:47;;;;;;;21.17;13.65;;;;;;;20.87;100.00;101070.97;5079918;28;20034;-76
2023/06/21 01:41:12;;;;;;;19.30;13.40;;;;;;;20.88;100.00;101083.94;5071339;28;20275;-76
2023/06/21 01:43:38;;;;;;;22.42;14.23;;;;;;;20.96;100.00;101086.63;5074394;28;20039;-76
2023/06/21 01:46:05;;;;;;;20.13;14.00;;;;;;;20.97;100.00;101091.06;5093545;28;20032;-76
2023/06/21 01:48:33;;;;;;;21.83;14.73;;;;;;;21.05;100.00;101095.31;5097430;28;20109;-75
2023/06/21 01:51:01;;;;;;;22.15;14.82;;;;;;;20.82;100.00;101087.78;5093743;28;20046;-76
2023/06/21 01:53:26;;;;;;;26.40;17.63;;;;;;;20.52;100.00;101090.47;5090539;28;20084;-75
2023/06/21 01:55:56;;;;;;;21.85;14.60;;;;;;;20.69;100.00;101101.91;5092912;28;20036;-75
2023/06/21 01:58:22;;;;;;;22.35;14.73;;;;;;;20.71;100.00;101100.22;5092905;28;20050;-75
2023/06/21 02:00:48;;;;;;;25.67;15.65;;;;;;;20.64;100.00;101097.53;5091817;28;20057;-75
2023/06/21 02:03:15;;;;;;;24.08;14.35;;;;;;;20.88;100.00;101103.84;5079315;28;20123;-75
2023/06/21 02:05:42;;;;;;;21.23;14.52;;;;;;;20.89;100.00;101102.63;5090453;28;20027;-76
2023/06/21 02:08:15;;;;;;;20.80;14.63;;;;;;;20.60;100.00;101107.41;5095173;28;20031;-76
2023/06/21 02:10:42;;;;;;;19.20;11.35;;;;;;;20.81;100.00;101109.72;5099080;28;20035;-75
2023/06/21 02:13:08;;;;;;;19.05;12.48;;;;;;;20.90;100.00;101101.38;5091521;28;20484;-76
2023/06/21 02:15:34;;;;;;;20.70;14.70;;;;;;;20.75;100.00;101110.72;5089664;27;20077;-76
2023/06/21 02:17:59;;;;;;;24.35;16.42;;;;;;;20.66;100.00;101111.31;5086846;28;20046;-76
2023/06/21 02:20:24;;;;;;;23.20;15.55;;;;;;;20.45;100.00;101107.69;5088044;28;20403;-76
2023/06/21 02:22:50;;;;;;;24.95;15.18;;;;;;;20.61;100.00;101104.09;5092197;28;20111;-76
2023/06/21 02:25:16;;;;;;;21.98;14.95;;;;;;;20.81;100.00;101106.91;5088325;28;20075;-75
2023/06/21 02:27:42;;;;;;;24.70;15.95;;;;;;;20.88;100.00;101106.69;5096682;28;20656;-75
2023/06/21 02:30:08;;;;;;;22.40;13.60;;;;;;;20.64;100.00;101113.78;5090688;28;20032;-76
2023/06/21 02:32:34;;;;;;;27.80;17.35;;;;;;;20.56;100.00;101120.88;5091742;28;20395;-76
2023/06/21 02:34:59;;;;;;;23.45;16.02;;;;;;;20.42;100.00;101110.63;5091816;28;20068;-75
2023/06/21 02:37:28;;;;;;;26.40;17.98;;;;;;;20.64;100.00;101128.00;5092681;28;20032;-76
2023/06/21 02:39:54;;;;;;;27.25;17.83;;;;;;;20.70;100.00;101126.25;5080199;28;20027;-75
2023/06/21 02:42:19;;;;;;;26.10;17.40;;;;;;;20.50;100.00;101124.22;5085374;28;20471;-75
2023/06/21 02:44:44;;;;;;;34.78;20.92;;;;;;;20.52;100.00;101126.63;5086681;28;20032;-75
2023/06/21 02:47:10;;;;;;;26.27;16.60;;;;;;;20.65;100.00;101132.47;5092012;28;21325;-75
2023/06/21 02:49:36;;;;;;;24.52;17.25;;;;;;;20.59;100.00;101131.38;5093581;28;20028;-75
2023/06/21 02:52:04;;;;;;;27.02;18.25;;;;;;;20.68;100.00;101126.69;5093453;28;20173;-76
2023/06/21 02:54:30;;;;;;;28.10;18.38;;;;;;;20.52;100.00;101133.13;5089857;28;20509;-75
2023/06/21 02:56:55;;;;;;;30.63;20.10;;;;;;;20.25;100.00;101126.84;5090153;28;20032;-76
2023/06/21 02:59:21;;;;;;;29.55;18.48;;;;;;;20.37;100.00;101128.22;5093826;28;20058;-76
2023/06/21 03:01:47;;;;;;;31.75;20.70;;;;;;;20.47;100.00;101132.84;5093774;28;20038;-76
2023/06/21 03:04:16;;;;;;;27.45;18.67;;;;;;;20.69;100.00;101128.28;5090187;28;20480;-76
2023/06/21 03:06:41;;;;;;;30.80;19.45;;;;;;;20.62;100.00;101136.22;5097497;28;20027;-76
2023/06/21 03:09:06;;;;;;;30.70;20.55;;;;;;;20.64;100.00;101142.22;5091561;28;20074;-75
2023/06/21 03:11:32;;;;;;;30.45;20.98;;;;;;;20.61;100.00;101145.97;5085888;28;20031;-75
2023/06/21 03:13:57;;;;;;;37.63;24.13;;;;;;;19.90;100.00;101149.06;5096795;28;20110;-75
2023/06/21 03:16:23;;;;;;;31.77;21.48;;;;;;;20.22;100.00;101153.31;5076249;28;20021;-76
2023/06/21 03:18:48;;;;;;;33.65;20.10;;;;;;;20.47;100.00;101149.88;5099019;28;20031;-76
2023/06/21 03:21:13;;;;;;;31.90;20.27;;;;;;;20.57;100.00;101160.22;5098984;28;20138;-76
2023/06/21 03:23:39;;;;;;;30.83;19.10;;;;;;;20.59;100.00;101163.47;5091102;28;20032;-75
2023/06/21 03:26:04;;;;;;;33.10;20.42;;;;;;;20.61;100.00;101165.88;5087870;28;20158;-76
2023/06/21 03:28:30;;;;;;;30.38;20.00;;;;;;;20.44;100.00;101150.78;5091591;28;20174;-76
2023/06/21 03:30:57;;;;;;;34.92;23.20;;;;;;;20.31;100.00;101168.50;5071625;28;20019;-76
2023/06/21 03:33:22;;;;;;;32.65;21.40;;;;;;;20.45;100.00;101175.94;5080840;28;20030;-75
2023/06/21 03:35:48;;;;;;;31.80;20.27;;;;;;;20.54;100.00;101172.50;5092137;28;20031;-76
2023/06/21 03:38:13;;;;;;;33.72;21.65;;;;;;;20.55;100.00;101173.28;5096084;28;20102;-75
2023/06/21 03:40:38;;;;;;;32.40;20.80;;;;;;;20.22;100.00;101171.16;5091366;28;20024;-75
2023/06/21 03:43:04;;;;;;;36.78;22.85;;;;;;;20.23;100.00;101180.47;5086923;28;20023;-75
2023/06/21 03:45:29;;;;;;;33.35;20.20;;;;;;;20.10;100.00;101177.50;5088632;28;20039;-75
2023/06/21 03:47:55;;;;;;;33.88;21.83;;;;;;;20.22;100.00;101179.69;5086577;28;20476;-76
2023/06/21 03:50:20;;;;;;;34.03;21.10;;;;;;;20.40;100.00;101190.66;5100564;28;20034;-76
2023/06/21 03:52:45;;;;;;;39.00;22.70;;;;;;;20.39;100.00;101189.06;5092284;28;20170;-76
2023/06/21 03:55:11;;;;;;;32.42;20.75;;;;;;;20.36;100.00;101192.78;5096501;28;20098;-76
2023/06/21 03:57:38;;;;;;;33.72;21.20;;;;;;;20.31;100.00;101198.97;5089781;28;20046;-76
2023/06/21 04:00:06;;;;;;;30.65;19.42;;;;;;;20.18;100.00;101198.06;5093224;28;20035;-76
2023/06/21 04:02:32;;;;;;;32.67;20.30;;;;;;;20.38;100.00;101204.50;5093008;28;20081;-75
2023/06/21 04:04:57;;;;;;;34.58;20.70;;;;;;;20.39;100.00;101206.13;5089410;28;20059;-76
2023/06/21 04:07:23;;;;;;;37.85;23.05;;;;;;;20.13;100.00;101212.75;5097054;28;20115;-76
2023/06/21 04:09:49;;;;;;;34.72;19.75;;;;;;;20.09;100.00;101222.16;5093184;28;20123;-75
2023/06/21 04:12:15;;;;;;;31.02;19.17;;;;;;;20.23;100.00;101231.63;5093030;28;20016;-75
2023/06/21 04:14:40;;;;;;;30.23;19.48;;;;;;;20.15;100.00;101227.31;5088901;28;20538;-76
2023/06/21 04:17:06;;;;;;;39.00;24.08;;;;;;;19.69;100.00;101222.06;5091122;28;20255;-76
2023/06/21 04:19:31;;;;;;;38.53;24.13;;;;;;;19.88;100.00;101216.88;5094627;28;20038;-76
2023/06/21 04:21:57;;;;;;;34.05;20.58;;;;;;;20.10;100.00;101223.75;5100383;28;20118;-76
2023/06/21 04:24:22;;;;;;;36.80;22.17;;;;;;;19.98;100.00;101227.22;5087808;28;20503;-76
2023/06/21 04:26:48;;;;;;;35.03;21.40;;;;;;;20.15;100.00;101233.81;5091340;28;20028;-76
2023/06/21 04:29:16;;;;;;;35.72;21.30;;;;;;;20.07;100.00;101230.31;5076227;28;20023;-75
2023/06/21 04:31:42;;;;;;;36.15;23.27;;;;;;;19.84;100.00;101219.00;5090852;28;20043;-76
2023/06/21 04:34:08;;;;;;;35.75;22.05;;;;;;;19.98;100.00;101217.91;5069734;28;20024;-75
2023/06/21 04:36:34;;;;;;;36.90;23.05;;;;;;;19.94;100.00;101208.66;5080776;28;20034;-75
2023/06/21 04:39:00;;;;;;;33.00;20.67;;;;;;;19.99;100.00;101211.00;5077014;28;20479;-76
2023/06/21 04:41:25;;;;;;;34.08;20.33;;;;;;;19.85;100.00;101217.75;5086768;28;20024;-76
2023/06/21 04:43:51;;;;;;;36.05;21.27;;;;;;;20.09;100.00;101216.47;5089334;28;20072;-76
2023/06/21 04:46:18;;;;;;;39.30;23.55;;;;;;;19.85;100.00;101206.38;5086060;28;20436;-76
2023/06/21 04:48:46;;;;;;;32.85;20.38;;;;;;;20.10;100.00;101209.53;5085564;28;20020;-76
2023/06/21 04:51:15;;;;;;;36.63;23.05;;;;;;;19.74;100.00;101217.16;5073204;28;20646;-76
2023/06/21 04:53:48;;;;;;;38.47;23.15;;;;;;;19.97;100.00;101224.84;5062425;28;20036;-75
2023/06/21 04:56:14;;;;;;;33.67;19.75;;;;;;;19.95;100.00;101241.53;5090827;28;20027;-75
2023/06/21 04:58:39;;;;;;;37.33;23.52;;;;;;;19.93;100.00;101236.28;5087883;28;20068;-75
2023/06/21 05:01:08;;;;;;;40.13;23.70;;;;;;;19.75;100.00;101242.25;5085185;28;20028;-76
2023/06/21 05:03:34;;;;;;;48.38;26.83;;;;;;;19.37;100.00;101250.19;5086527;28;20044;-76
2023/06/21 05:06:02;;;;;;;43.55;24.13;;;;;;;19.63;100.00;101254.22;5082683;28;20109;-76
2023/06/21 05:08:28;;;;;;;35.05;21.77;;;;;;;19.64;100.00;101248.09;5079958;28;20498;-75
2023/06/21 05:10:53;;;;;;;41.90;24.70;;;;;;;19.45;100.00;101258.16;5089868;28;20024;-76
2023/06/21 05:13:19;;;;;;;39.65;23.08;;;;;;;19.47;100.00;101257.72;5084577;28;20036;-75
2023/06/21 05:15:44;;;;;;;37.28;23.08;;;;;;;19.86;100.00;101261.97;5089092;28;20023;-76
2023/06/21 05:18:10;;;;;;;36.47;21.40;;;;;;;19.86;100.00;101264.81;5084803;28;20456;-75
2023/06/21 05:20:35;;;;;;;35.92;21.67;;;;;;;19.97;100.00;101271.09;5084307;28;20063;-76
2023/06/21 05:23:00;;;;;;;37.72;22.13;;;;;;;19.85;100.00;101275.34;5091641;28;20039;-76
2023/06/21 05:25:26;;;;;;;24.17;15.40;;;;;;;21.40;100.00;101272.16;5082961;28;20114;-81
2023/06/21 05:27:51;;;;;;;33.97;20.25;;;;;;;22.03;100.00;101268.97;5066236;28;20063;-81
2023/06/21 05:30:18;;;;;;;30.25;17.95;;;;;;;22.72;97.52;101279.28;5089715;28;20146;-81
2023/06/21 05:32:44;;;;;;;32.75;19.02;;;;;;;22.73;100.00;101280.88;5089031;28;20035;-77
2023/06/21 05:35:09;;;;;;;31.45;18.40;;;;;;;22.76;100.00;101279.97;5079190;28;20066;-77
2023/06/21 05:37:34;;;;;;;32.65;17.98;;;;;;;22.71;100.00;101289.88;5088845;28;20058;-77
2023/06/21 05:40:02;;;;;;;29.95;19.48;;;;;;;22.71;98.91;101280.53;5091437;28;20086;-77
2023/06/21 05:42:28;;;;;;;28.85;17.83;;;;;;;21.68;100.00;101282.88;5082210;28;20020;-76
2023/06/21 05:44:53;;;;;;;39.25;22.05;;;;;;;21.01;100.00;101279.59;5088147;28;20046;-75
2023/06/21 05:47:18;;;;;;;29.85;18.90;;;;;;;22.32;100.00;101277.53;5088915;28;20038;-77
2023/06/21 05:49:43;;;;;;;28.27;17.67;;;;;;;22.58;100.00;101279.69;5085483;28;20400;-77
2023/06/21 05:52:09;;;;;;;31.63;18.25;;;;;;;22.86;98.33;101290.25;5088112;28;20028;-79
2023/06/21 05:54:34;;;;;;;31.73;19.00;;;;;;;22.40;99.14;101298.13;5082520;28;20032;-79
2023/06/21 05:57:02;;;;;;;41.50;22.70;;;;;;;22.53;100.00;101296.09;5090698;28;20024;-79
2023/06/21 05:59:28;;;;;;;42.10;21.95;;;;;;;22.15;100.00;101295.13;5086981;28;20035;-76
2023/06/21 06:01:53;;;;;;;39.15;24.20;;;;;;;22.17;100.00;101295.47;5091686;28;20026;-73
2023/06/21 06:04:19;;;;;;;39.95;23.02;;;;;;;22.46;100.00;101309.78;5090287;28;20031;-73
2023/06/21 06:06:44;;;;;;;51.97;24.17;;;;;;;22.46;100.00;101312.63;5092087;28;20028;-74
2023/06/21 06:09:10;;;;;;;39.85;22.15;;;;;;;22.63;100.00;101317.03;5076306;28;20027;-73
2023/06/21 06:11:35;;;;;;;39.03;22.95;;;;;;;23.26;100.00;101324.16;5097245;28;20110;-75
2023/06/21 06:14:01;;;;;;;39.80;21.95;;;;;;;23.52;97.38;101332.72;5091704;28;21494;-76
2023/06/21 06:16:27;;;;;;;35.03;19.05;;;;;;;23.60;98.00;101330.44;5095144;28;20047;-73
2023/06/21 06:18:53;;;;;;;31.88;19.25;;;;;;;23.53;99.50;101340.06;5080045;28;20032;-73
2023/06/21 06:21:21;;;;;;;33.42;18.25;;;;;;;23.82;96.36;101342.78;5094556;28;20019;-73
2023/06/21 06:23:52;;;;;;;32.33;17.45;;;;;;;23.87;95.89;101344.28;5093241;28;20539;-74
2023/06/21 06:26:22;;;;;;;29.20;17.25;;;;;;;23.94;94.81;101332.59;5097679;28;20484;-74
2023/06/21 06:28:47;;;;;;;31.17;16.70;;;;;;;24.04;93.68;101345.72;5097266;28;20023;-74
2023/06/21 06:31:13;;;;;;;34.28;19.33;;;;;;;24.18;92.87;101349.34;5091856;28;20038;-75
2023/06/21 06:33:38;;;;;;;30.50;16.30;;;;;;;23.95;93.82;101351.38;5094460;28;20034;-75
2023/06/21 06:36:05;;;;;;;30.00;15.57;;;;;;;23.37;97.40;101358.09;5085139;28;20028;-75
2023/06/21 06:38:30;;;;;;;32.08;19.38;;;;;;;24.08;92.73;101360.72;5091042;28;20154;-75
2023/06/21 06:40:55;;;;;;;28.08;16.02;;;;;;;24.17;90.61;101362.06;5084731;28;20035;-75
2023/06/21 06:43:20;;;;;;;31.50;16.58;;;;;;;24.13;91.76;101368.69;5086183;28;20042;-75
2023/06/21 06:45:46;;;;;;;29.40;16.30;;;;;;;24.02;91.81;101373.97;5091742;28;20415;-75
2023/06/21 06:48:11;;;;;;;32.60;17.88;;;;;;;24.40;89.78;101380.88;5084745;28;20652;-75
2023/06/21 06:50:38;;;;;;;29.48;15.70;;;;;;;24.10;88.86;101383.13;5087424;28;20058;-75
2023/06/21 06:53:05;;;;;;;25.85;15.68;;;;;;;24.23;90.02;101377.38;5085485;28;20430;-74
2023/06/21 06:55:31;;;;;;;24.13;15.15;;;;;;;23.78;91.42;101384.19;5088545;28;20043;-74
2023/06/21 06:57:58;;;;;;;24.67;15.30;;;;;;;23.98;91.45;101395.38;5091394;28;20340;-75
2023/06/21 07:00:23;;;;;;;22.88;13.95;;;;;;;24.32;89.68;101395.41;5070359;28;20428;-75
2023/06/21 07:02:48;;;;;;;20.33;11.20;;;;;;;23.14;92.44;101384.91;5086944;28;20024;-75
2023/06/21 07:05:14;;;;;;;25.30;12.65;;;;;;;23.73;92.05;101392.03;5089763;28;20103;-74
2023/06/21 07:07:39;;;;;;;21.38;12.40;;;;;;;23.93;89.82;101388.19;5089254;28;20088;-74
2023/06/21 07:10:05;;;;;;;24.42;13.18;;;;;;;23.77;91.75;101385.44;5090462;28;20032;-77
2023/06/21 07:12:31;;;;;;;21.63;13.55;;;;;;;23.23;93.10;101387.09;5093766;28;20124;-74
2023/06/21 07:14:56;;;;;;;21.80;13.07;;;;;;;22.75;95.81;101389.69;5095742;28;20365;-75
2023/06/21 07:17:23;;;;;;;24.23;14.13;;;;;;;23.46;94.08;101388.81;5075585;28;20043;-75
2023/06/21 07:19:49;;;;;;;19.38;11.80;;;;;;;23.46;91.79;101394.53;5092108;28;20165;-76
2023/06/21 07:22:14;;;;;;;19.67;12.52;;;;;;;23.22;93.91;101394.84;5092091;28;20111;-75
2023/06/21 07:24:39;;;;;;;20.92;13.25;;;;;;;23.11;93.66;101408.66;5080970;28;20036;-76
2023/06/21 07:27:05;;;;;;;19.80;11.82;;;;;;;22.30;97.40;101408.41;5073502;28;20598;-74
2023/06/21 07:29:30;;;;;;;15.85;10.32;;;;;;;22.08;99.38;101408.09;5085877;28;20043;-74
2023/06/21 07:31:55;;;;;;;15.45;11.10;;;;;;;22.16;100.00;101413.59;5092633;28;20042;-74
2023/06/21 07:34:21;;;;;;;15.35;11.15;;;;;;;22.34;99.12;101408.28;5101844;28;20062;-74
2023/06/21 07:36:46;;;;;;;15.68;9.57;;;;;;;22.37;100.00;101418.00;5093554;28;20042;-74
2023/06/21 07:39:13;;;;;;;16.33;10.65;;;;;;;22.16;100.00;101416.47;5089190;28;20676;-74
2023/06/21 07:41:38;;;;;;;18.55;10.90;;;;;;;22.23;100.00;101419.19;5094967;28;20074;-73
2023/06/21 07:44:03;;;;;;;17.95;11.70;;;;;;;21.90;100.00;101425.66;5091238;28;20491;-74
2023/06/21 07:46:29;;;;;;;17.15;11.27;;;;;;;22.07;100.00;101422.78;5090366;28;20032;-74
2023/06/21 07:48:54;;;;;;;18.58;12.60;;;;;;;21.92;100.00;101419.47;5094411;28;20544;-74
2023/06/21 07:51:19;;;;;;;17.15;10.75;;;;;;;21.95;100.00;101426.34;5090860;28;20043;-74
2023/06/21 07:53:45;;;;;;;17.42;10.70;;;;;;;22.19;100.00;101421.28;5095035;28;20429;-74
2023/06/21 07:56:14;;;;;;;15.60;10.30;;;;;;;22.15;100.00;101423.44;5081735;28;20104;-74
2023/06/21 07:58:41;;;;;;;19.20;12.40;;;;;;;22.16;100.00;101419.31;5097823;28;20032;-74
2023/06/21 08:01:06;;;;;;;16.40;10.75;;;;;;;22.39;100.00;101422.03;5087594;28;20379;-76
2023/06/21 08:03:31;;;;;;;17.45;10.70;;;;;;;22.30;100.00;101431.22;5101453;28;20031;-75
2023/06/21 08:05:57;;;;;;;18.45;11.52;;;;;;;22.04;100.00;101430.19;5090797;28;20022;-75
2023/06/21 08:08:23;;;;;;;15.63;10.98;;;;;;;22.19;100.00;101429.84;5098301;28;20027;-75
2023/06/21 08:10:48;;;;;;;20.38;10.80;;;;;;;22.25;98.85;101422.38;5094740;28;20020;-75
2023/06/21 08:13:17;;;;;;;19.00;11.85;;;;;;;22.50;98.38;101427.44;5079957;28;20022;-76
2023/06/21 08:15:42;;;;;;;18.95;11.70;;;;;;;22.05;100.00;101428.97;5096752;28;20106;-75
2023/06/21 08:18:07;;;;;;;17.45;10.73;;;;;;;22.49;99.83;101426.66;5078618;28;20088;-75
2023/06/21 08:20:33;;;;;;;16.75;11.35;;;;;;;22.46;97.79;101435.28;5093815;28;20450;-75
2023/06/21 08:22:58;;;;;;;22.90;12.93;;;;;;;22.45;98.70;101430.81;5093002;28;20033;-75
2023/06/21 08:25:24;;;;;;;19.00;12.60;;;;;;;22.49;99.60;101440.91;5086309;28;20032;-75
2023/06/21 08:27:49;;;;;;;25.20;13.38;;;;;;;22.73;96.56;101446.41;5083054;28;20028;-75
2023/06/21 08:30:14;;;;;;;14.00;10.25;;;;;;;22.94;96.65;101439.28;5087527;28;20122;-75
2023/06/21 08:32:40;;;;;;;18.70;12.27;;;;;;;22.83;95.23;101450.19;5069639;28;20056;-75
2023/06/21 08:35:06;;;;;;;16.42;10.82;;;;;;;23.01;95.48;101455.44;5091144;28;20020;-75
2023/06/21 08:37:31;;;;;;;17.88;11.20;;;;;;;23.14;95.35;101462.00;5089088;28;20043;-75
2023/06/21 08:39:57;;;;;;;19.02;12.27;;;;;;;22.86;94.24;101458.66;5095287;28;20455;-75
2023/06/21 08:42:24;;;;;;;16.50;10.30;;;;;;;23.07;94.44;101463.00;5094510;28;20028;-75
2023/06/21 08:44:54;;;;;;;17.13;10.20;;;;;;;22.95;96.57;101475.13;5089831;28;20451;-75
2023/06/21 08:47:21;;;;;;;15.73;9.25;;;;;;;23.25;93.97;101465.34;5092927;28;20027;-75
2023/06/21 08:49:47;;;;;;;16.25;10.73;;;;;;;23.49;91.78;101479.34;5076056;28;20027;-75
2023/06/21 08:52:19;;;;;;;17.25;11.25;;;;;;;23.45;93.02;101484.38;5087274;28;20056;-75
2023/06/21 08:54:49;;;;;;;16.10;11.02;;;;;;;23.60;90.25;101482.69;5093730;28;20027;-75
2023/06/21 08:57:21;;;;;;;16.40;9.60;;;;;;;23.94;89.38;101481.25;5082563;28;20097;-75
2023/06/21 09:00:00;;;;;;;14.35;9.88;;;;;;;23.50;85.50;101475.22;5097103;28;20029;-75
2023/06/21 09:03:03;;;;;;;10.57;6.90;;;;;;;23.60;89.33;101479.81;5091464;28;20404;-75
2023/06/21 09:05:35;;;;;;;19.50;12.07;;;;;;;23.18;93.76;101487.59;5083640;28;20104;-75
2023/06/21 09:08:04;;;;;;;17.48;10.77;;;;;;;23.05;93.33;101491.22;5097660;28;20036;-75
2023/06/21 09:10:30;;;;;;;15.95;9.88;;;;;;;23.42;93.61;101485.25;5077676;28;20118;-75
2023/06/21 09:12:59;;;;;;;13.82;10.02;;;;;;;23.73;89.17;101491.28;5088354;28;20088;-75
2023/06/21 09:15:25;;;;;;;14.88;10.07;;;;;;;23.93;89.88;101485.41;5094127;28;20476;-75
2023/06/21 09:17:54;;;;;;;12.23;8.13;;;;;;;24.04;86.75;101493.63;5092881;28;20093;-75
2023/06/21 09:20:22;;;;;;;14.95;10.23;;;;;;;23.77;86.70;101485.50;5095208;28;20038;-75
2023/06/21 09:22:48;;;;;;;12.65;9.00;;;;;;;24.24;86.81;101490.53;5097402;28;20024;-75
2023/06/21 09:25:13;;;;;;;13.98;8.95;;;;;;;24.06;84.99;101493.97;5096618;28;20023;-75
2023/06/21 09:27:39;;;;;;;12.68;9.32;;;;;;;24.25;85.03;101486.41;5104180;28;20046;-75
2023/06/21 09:30:05;;;;;;;16.63;8.50;;;;;;;24.43;81.43;101495.19;5102123;28;20046;-75
2023/06/21 09:32:31;;;;;;;12.27;7.35;;;;;;;24.57;81.38;101496.81;5099306;28;20023;-75
2023/06/21 09:34:56;;;;;;;10.85;7.50;;;;;;;24.14;83.88;101501.88;5092498;28;20792;-75
2023/06/21 09:37:36;;;;;;;11.57;7.00;;;;;;;24.50;78.61;101499.91;5091416;28;20376;-75
2023/06/21 09:40:05;;;;;;;8.63;6.13;;;;;;;24.41;80.93;101514.06;5092753;28;20035;-76
2023/06/21 09:42:34;;;;;;;11.18;7.18;;;;;;;24.54;79.44;101507.13;5087576;28;20031;-75
2023/06/21 09:45:00;;;;;;;9.23;6.38;;;;;;;24.90;78.53;101511.59;5097032;28;20785;-75
2023/06/21 09:47:29;;;;;;;9.35;6.38;;;;;;;24.52;76.65;101509.63;5087874;28;20035;-75
2023/06/21 09:49:56;;;;;;;7.60;5.45;;;;;;;24.83;78.68;101517.56;5101588;28;20043;-76
2023/06/21 09:52:22;;;;;;;8.50;5.85;;;;;;;25.06;78.52;101512.69;5103883;28;20480;-74
2023/06/21 09:54:48;;;;;;;7.07;4.32;;;;;;;24.60;73.29;101520.84;5092599;28;20055;-75
2023/06/21 09:57:13;;;;;;;5.85;4.28;;;;;;;24.71;75.55;101519.22;5071336;28;20035;-75
2023/06/21 09:59:40;;;;;;;4.55;3.65;;;;;;;25.11;71.13;101506.38;5096376;28;20035;-75
2023/06/21 10:02:06;;;;;;;5.05;3.10;;;;;;;25.02;73.42;101512.00;5092226;28;20168;-75
2023/06/21 10:04:42;;;;;;;4.15;3.22;;;;;;;24.84;70.38;101518.38;5097325;28;20024;-75
2023/06/21 10:07:08;;;;;;;5.43;3.45;;;;;;;24.83;76.32;101519.63;5092697;28;20040;-75
2023/06/21 10:09:37;;;;;;;4.85;3.42;;;;;;;25.10;70.18;101521.97;5101730;28;20736;-75
2023/06/21 10:12:09;;;;;;;5.43;4.05;;;;;;;25.18;76.77;101520.44;5077334;28;20142;-77
2023/06/21 10:14:35;;;;;;;6.93;4.13;;;;;;;25.12;76.79;101522.28;5094177;28;20058;-75
2023/06/21 10:17:00;;;;;;;5.88;3.67;;;;;;;25.06;73.80;101519.22;5079543;28;20285;-75
2023/06/21 10:19:30;;;;;;;6.32;4.40;;;;;;;25.16;73.54;101517.25;5096196;28;20458;-75
2023/06/21 10:22:06;;;;;;;5.10;3.80;;;;;;;25.02;73.27;101529.19;5082192;28;20069;-75
2023/06/21 10:24:42;;;;;;;6.28;4.38;;;;;;;25.10;71.23;101513.38;5093446;28;20458;-75
2023/06/21 10:27:09;;;;;;;7.60;4.00;;;;;;;24.78;70.19;101514.50;5088752;28;20114;-74
2023/06/21 10:29:37;;;;;;;5.22;3.53;;;;;;;24.90;75.57;101519.41;5083950;28;20031;-74
2023/06/21 10:32:05;;;;;;;5.25;4.15;;;;;;;25.26;71.10;101521.81;5099521;28;20464;-75
2023/06/21 10:34:55;;;;;;;7.32;4.07;;;;;;;24.89;75.08;101521.44;5093385;28;20043;-75
2023/06/21 10:37:48;;;;;;;5.53;4.30;;;;;;;25.06;74.88;101515.56;5091938;28;20035;-75
2023/06/21 10:40:16;;;;;;;3.95;2.95;;;;;;;25.26;70.11;101527.53;5078439;28;20510;-74
2023/06/21 10:42:43;;;;;;;5.50;3.08;;;;;;;25.51;72.86;101528.66;5074614;28;20031;-75
2023/06/21 10:45:10;;;;;;;5.57;3.63;;;;;;;25.74;69.75;101533.94;5094713;28;20080;-74
2023/06/21 10:47:37;;;;;;;3.55;2.80;;;;;;;25.66;73.03;101535.47;5089955;28;20027;-75
2023/06/21 10:50:02;;;;;;;4.53;2.97;;;;;;;25.99;67.96;101543.63;5091703;28;20053;-75
2023/06/21 10:52:30;;;;;;;6.60;3.63;;;;;;;26.28;69.51;101542.50;5093650;28;20120;-74
2023/06/21 10:55:00;;;;;;;4.68;3.85;;;;;;;25.79;67.29;101546.06;5091495;28;20031;-74
2023/06/21 10:57:27;;;;;;;5.15;3.63;;;;;;;25.67;70.57;101536.25;5095674;28;20032;-74
2023/06/21 10:59:55;;;;;;;6.35;4.50;;;;;;;25.82;71.82;101542.25;5091145;28;20075;-75
2023/06/21 11:02:22;;;;;;;4.88;4.28;;;;;;;25.74;65.89;101545.41;5090932;28;20606;-75
2023/06/21 11:05:12;;;;;;;8.15;4.20;;;;;;;25.37;68.80;101540.69;5075611;28;20030;-75
2023/06/21 11:07:38;;;;;;;5.88;4.50;;;;;;;25.39;71.66;101549.59;5096152;28;20028;-75